createdAt,value
2019-02-10T00:01:46.894Z,14.87
2019-02-10T00:04:14.427Z,14.07
2019-02-10T00:06:41.903Z,12.27
2019-02-10T00:09:09.418Z,13.10
2019-02-10T00:11:36.948Z,10.43
2019-02-10T00:14:04.473Z,11.77
2019-02-10T00:16:32.006Z,12.47
2019-02-10T00:19:01.203Z,8.80
2019-02-10T00:21:28.729Z,9.33
2019-02-10T00:23:56.259Z,10.87
2019-02-10T00:26:23.750Z,9.03
2019-02-10T00:28:51.298Z,12.77
2019-02-10T00:31:18.879Z,8.97
2019-02-10T00:33:46.406Z,14.30
2019-02-10T00:36:16.800Z,8.77
2019-02-10T00:38:44.284Z,10.93
2019-02-10T00:41:11.793Z,9.87
2019-02-10T00:43:39.300Z,9.63
2019-02-10T00:46:06.854Z,8.17
2019-02-10T00:48:34.320Z,9.23
2019-02-10T00:51:01.797Z,11.40
2019-02-10T00:53:29.317Z,7.83
2019-02-10T00:55:56.809Z,7.70
2019-02-10T00:58:24.268Z,8.67
2019-02-10T01:00:51.869Z,6.27
2019-02-10T01:03:19.351Z,7.83
2019-02-10T01:05:46.870Z,11.83
2019-02-10T01:08:14.346Z,8.73
2019-02-10T01:10:41.834Z,9.03
2019-02-10T01:13:09.346Z,6.70
2019-02-10T01:15:37.054Z,8.93
2019-02-10T01:18:04.630Z,10.87
2019-02-10T01:20:32.113Z,9.53
2019-02-10T01:22:59.640Z,9.13
2019-02-10T01:25:27.106Z,10.57
2019-02-10T01:27:54.560Z,9.27
2019-02-10T01:30:22.088Z,10.70
2019-02-10T01:32:49.582Z,8.00
2019-02-10T01:35:17.117Z,9.10
2019-02-10T01:37:44.582Z,9.53
2019-02-10T01:40:12.105Z,7.63
2019-02-10T01:42:39.604Z,8.43
2019-02-10T01:45:08.764Z,7.57
2019-02-10T01:47:36.247Z,10.23
2019-02-10T01:50:05.065Z,7.87
2019-02-10T01:52:32.666Z,7.30
2019-02-10T01:55:00.282Z,6.97
2019-02-10T01:57:27.728Z,7.60
2019-02-10T01:59:55.251Z,8.23
2019-02-10T02:02:22.725Z,10.87
2019-02-10T02:04:50.274Z,8.67
2019-02-10T02:07:17.820Z,10.37
2019-02-10T02:09:45.295Z,6.03
2019-02-10T02:12:12.837Z,11.73
2019-02-10T02:14:40.330Z,6.53
2019-02-10T02:17:07.898Z,6.50
2019-02-10T02:19:35.397Z,9.27
2019-02-10T02:22:02.995Z,5.83
2019-02-10T02:24:30.530Z,6.73
2019-02-10T02:26:58.099Z,5.83
2019-02-10T02:29:25.573Z,5.43
2019-02-10T02:31:53.091Z,8.83
2019-02-10T02:34:20.626Z,5.60
2019-02-10T02:36:48.127Z,7.40
2019-02-10T02:39:15.611Z,7.83
2019-02-10T02:41:43.122Z,8.83
2019-02-10T02:44:10.589Z,7.30
2019-02-10T02:46:38.096Z,9.43
2019-02-10T02:49:05.583Z,9.37
2019-02-10T02:51:33.097Z,8.47
2019-02-10T02:54:00.838Z,11.93
2019-02-10T02:56:28.383Z,8.73
2019-02-10T02:58:55.890Z,17.37
2019-02-10T03:01:23.357Z,9.23
2019-02-10T03:03:50.858Z,8.10
2019-02-10T03:06:18.377Z,9.27
2019-02-10T03:08:45.848Z,7.70
2019-02-10T03:11:13.385Z,10.83
2019-02-10T03:13:40.859Z,8.80
2019-02-10T03:16:08.357Z,6.17
2019-02-10T03:18:35.862Z,7.03
2019-02-10T03:21:03.342Z,7.47
2019-02-10T03:23:30.817Z,6.67
2019-02-10T03:25:58.324Z,4.70
2019-02-10T03:28:25.777Z,4.37
2019-02-10T03:30:53.287Z,7.17
2019-02-10T03:33:20.906Z,7.33
2019-02-10T03:35:48.458Z,8.43
2019-02-10T03:38:15.948Z,6.80
2019-02-10T03:40:43.437Z,10.33
2019-02-10T03:43:11.034Z,11.30
2019-02-10T03:45:38.570Z,9.83
2019-02-10T03:48:06.051Z,11.07
2019-02-10T03:50:33.536Z,10.37
2019-02-10T03:53:01.105Z,7.20
2019-02-10T03:55:28.574Z,11.93
2019-02-10T03:57:56.115Z,8.43
2019-02-10T04:00:23.628Z,12.10
2019-02-10T04:02:51.220Z,9.67
2019-02-10T04:05:18.692Z,9.20
2019-02-10T04:07:46.186Z,8.23
2019-02-10T04:10:13.695Z,13.90
2019-02-10T04:12:41.209Z,9.27
2019-02-10T04:15:08.821Z,11.43
2019-02-10T04:17:36.317Z,7.57
2019-02-10T04:20:04.249Z,7.70
2019-02-10T04:22:31.798Z,8.73
2019-02-10T04:24:59.266Z,6.03
2019-02-10T04:27:26.753Z,7.77
2019-02-10T04:29:54.285Z,7.23
2019-02-10T04:32:21.819Z,5.97
2019-02-10T04:34:49.384Z,9.73
2019-02-10T04:37:16.882Z,5.67
2019-02-10T04:39:44.410Z,7.53
2019-02-10T04:42:11.877Z,6.13
2019-02-10T04:44:39.433Z,7.77
2019-02-10T04:47:06.998Z,8.70
2019-02-10T04:49:34.578Z,8.97
2019-02-10T04:52:02.238Z,16.63
2019-02-10T04:54:29.702Z,7.83
2019-02-10T04:56:57.180Z,8.50
2019-02-10T04:59:24.726Z,7.43
2019-02-10T05:01:52.265Z,8.43
2019-02-10T05:04:19.777Z,4.33
2019-02-10T05:06:47.297Z,4.77
2019-02-10T05:09:14.812Z,3.37
2019-02-10T05:11:42.322Z,4.07
2019-02-10T05:14:09.841Z,3.30
2019-02-10T05:16:37.357Z,3.47
2019-02-10T05:19:04.819Z,3.90
2019-02-10T05:21:32.289Z,6.20
2019-02-10T05:24:03.677Z,3.10
2019-02-10T05:26:29.110Z,3.80
2019-02-10T05:28:56.567Z,3.77
2019-02-10T05:31:24.088Z,2.77
2019-02-10T05:33:51.573Z,2.97
2019-02-10T05:36:19.107Z,3.23
2019-02-10T05:38:46.674Z,4.07
2019-02-10T05:41:14.474Z,2.77
2019-02-10T05:43:41.938Z,3.40
2019-02-10T05:46:09.427Z,4.67
2019-02-10T05:48:36.942Z,4.00
2019-02-10T05:51:04.426Z,3.73
2019-02-10T05:53:31.979Z,12.20
2019-02-10T05:55:59.477Z,7.40
2019-02-10T05:58:27.033Z,3.50
2019-02-10T06:01:16.225Z,3.43
2019-02-10T06:03:43.707Z,4.10
2019-02-10T06:06:11.212Z,3.43
2019-02-10T06:08:38.739Z,3.37
2019-02-10T06:11:06.237Z,3.87
2019-02-10T06:13:33.724Z,2.90
2019-02-10T06:16:01.216Z,3.43
2019-02-10T06:18:28.745Z,2.83
2019-02-10T06:20:56.278Z,3.07
2019-02-10T06:23:23.753Z,2.63
2019-02-10T06:25:51.246Z,3.20
2019-02-10T06:28:18.769Z,4.83
2019-02-10T06:30:46.282Z,4.10
2019-02-10T06:33:16.135Z,3.30
2019-02-10T06:35:43.666Z,4.10
2019-02-10T06:38:22.196Z,5.20
2019-02-10T06:40:48.557Z,6.23
2019-02-10T06:43:16.057Z,6.03
2019-02-10T06:45:43.557Z,6.57
2019-02-10T06:48:11.084Z,7.03
2019-02-10T06:50:38.634Z,6.33
2019-02-10T06:53:06.129Z,7.43
2019-02-10T06:55:33.697Z,5.10
2019-02-10T06:58:01.174Z,5.67
2019-02-10T07:00:46.372Z,26.07
2019-02-10T07:03:58.574Z,8.37
2019-02-10T07:06:26.225Z,6.53
2019-02-10T07:08:53.734Z,3.87
2019-02-10T07:11:21.262Z,3.20
2019-02-10T07:13:59.828Z,5.43
2019-02-10T07:16:54.782Z,4.57
2019-02-10T07:20:15.665Z,7.83
2019-02-10T07:23:25.409Z,4.00
2019-02-10T07:25:57.790Z,3.60
2019-02-10T07:28:59.385Z,4.53
2019-02-10T07:31:33.647Z,3.87
2019-02-10T07:34:16.743Z,3.27
2019-02-10T07:37:08.152Z,3.53
2019-02-10T07:40:13.329Z,2.83
2019-02-10T07:43:27.690Z,4.17
2019-02-10T07:46:46.570Z,3.00
2019-02-10T07:49:47.713Z,2.73
2019-02-10T07:52:29.932Z,3.23
2019-02-10T07:55:24.510Z,4.00
2019-02-10T07:58:42.618Z,3.10
2019-02-10T08:01:47.604Z,4.27
2019-02-10T08:05:03.608Z,5.13
2019-02-10T08:07:58.911Z,6.47
2019-02-10T08:11:06.978Z,3.57
2019-02-10T08:14:01.442Z,3.67
2019-02-10T08:20:42.038Z,3.30
2019-02-10T08:27:17.266Z,5.60
2019-02-10T08:29:57.524Z,46.10
2019-02-10T08:32:42.609Z,12.43
2019-02-10T08:36:04.333Z,3.70
2019-02-10T08:39:04.872Z,4.10
2019-02-10T08:41:57.771Z,3.30
2019-02-10T08:44:45.554Z,4.13
2019-02-10T08:48:10.102Z,3.63
2019-02-10T08:51:06.994Z,3.20
2019-02-10T08:53:38.096Z,4.83
2019-02-10T08:56:06.497Z,4.73
2019-02-10T08:58:34.010Z,6.83
2019-02-10T09:01:01.841Z,4.50
2019-02-10T09:03:29.352Z,5.60
2019-02-10T09:05:57.030Z,3.57
2019-02-10T09:08:24.584Z,3.80
2019-02-10T09:10:52.133Z,3.80
2019-02-10T09:13:19.703Z,4.97
2019-02-10T09:15:47.199Z,5.20
2019-02-10T09:18:14.739Z,4.03
2019-02-10T09:20:42.239Z,3.60
2019-02-10T09:23:09.808Z,3.83
2019-02-10T09:25:37.383Z,3.50
2019-02-10T09:28:05.041Z,3.10
2019-02-10T09:30:32.597Z,2.90
2019-02-10T09:33:00.147Z,4.67
2019-02-10T09:35:27.826Z,2.87
2019-02-10T09:37:55.498Z,3.20
2019-02-10T09:40:23.023Z,3.17
2019-02-10T09:42:50.554Z,6.43
2019-02-10T09:45:18.067Z,4.37
2019-02-10T09:47:45.526Z,3.60
2019-02-10T09:50:17.778Z,4.33
2019-02-10T09:52:45.476Z,3.17
2019-02-10T09:55:12.973Z,3.57
2019-02-10T09:57:40.580Z,3.20
2019-02-10T10:00:10.844Z,3.87
2019-02-10T10:02:38.385Z,4.13
2019-02-10T10:05:07.205Z,4.17
2019-02-10T10:07:34.733Z,3.63
2019-02-10T10:10:02.243Z,3.07
2019-02-10T10:12:29.849Z,3.43
2019-02-10T10:15:16.775Z,2.83
2019-02-10T10:17:44.358Z,3.03
2019-02-10T10:20:13.705Z,2.50
2019-02-10T10:22:41.235Z,5.53
2019-02-10T10:25:08.829Z,3.50
2019-02-10T10:27:36.305Z,3.97
2019-02-10T10:30:05.186Z,6.27
2019-02-10T10:32:32.990Z,4.60
2019-02-10T10:35:00.509Z,4.53
2019-02-10T10:37:28.005Z,4.73
2019-02-10T10:39:55.681Z,6.13
2019-02-10T10:42:23.456Z,4.00
2019-02-10T10:44:50.980Z,5.73
2019-02-10T10:47:18.491Z,4.10
2019-02-10T10:49:46.149Z,4.00
2019-02-10T10:52:13.896Z,3.40
2019-02-10T10:54:42.811Z,5.00
2019-02-10T10:57:10.695Z,3.30
2019-02-10T10:59:38.283Z,3.67
2019-02-10T11:02:05.823Z,2.13
2019-02-10T11:04:33.427Z,1.80
2019-02-10T11:07:01.313Z,2.10
2019-02-10T11:09:35.425Z,1.87
2019-02-10T11:11:58.241Z,1.73
2019-02-10T11:14:25.841Z,2.07
2019-02-10T11:16:53.378Z,3.23
2019-02-10T11:19:21.105Z,2.10
2019-02-10T11:24:35.652Z,2.17
2019-02-10T11:27:03.203Z,3.30
2019-02-10T11:29:32.961Z,1.87
2019-02-10T11:32:00.326Z,1.67
2019-02-10T11:34:27.837Z,1.97
2019-02-10T11:36:55.556Z,1.73
2019-02-10T11:39:23.047Z,3.23
2019-02-10T11:41:50.548Z,2.50
2019-02-10T11:44:18.076Z,1.90
2019-02-10T11:46:45.670Z,2.43
2019-02-10T11:49:13.327Z,2.53
2019-02-10T11:51:40.810Z,3.13
2019-02-10T11:54:08.303Z,3.03
2019-02-10T11:56:35.808Z,2.17
2019-02-10T11:59:03.584Z,2.97
2019-02-10T12:01:31.200Z,2.20
2019-02-10T12:03:58.763Z,2.10
2019-02-10T12:06:26.394Z,2.17
2019-02-10T12:08:53.903Z,2.13
2019-02-10T12:11:21.426Z,1.90
2019-02-10T12:13:48.920Z,2.23
2019-02-10T12:16:16.454Z,2.40
2019-02-10T12:18:43.925Z,1.90
2019-02-10T12:21:11.459Z,2.03
2019-02-10T12:23:58.459Z,4.13
2019-02-10T12:26:26.055Z,5.17
2019-02-10T12:28:53.793Z,6.20
2019-02-10T12:31:21.406Z,2.63
2019-02-10T12:33:48.895Z,3.80
2019-02-10T12:36:16.451Z,2.80
2019-02-10T12:38:43.975Z,2.93
2019-02-10T12:41:30.955Z,5.97
2019-02-10T12:44:00.853Z,4.70
2019-02-10T12:46:28.376Z,2.90
2019-02-10T12:48:55.892Z,5.57
2019-02-10T12:51:25.354Z,2.70
2019-02-10T12:53:52.904Z,3.73
2019-02-10T12:56:25.514Z,2.43
2019-02-10T12:58:53.048Z,2.50
2019-02-10T13:01:20.613Z,3.07
2019-02-10T13:03:52.590Z,2.70
2019-02-10T13:06:22.040Z,2.73
2019-02-10T13:08:54.125Z,3.17
2019-02-10T13:11:21.680Z,3.10
2019-02-10T13:13:49.244Z,5.47
2019-02-10T13:16:16.810Z,4.73
2019-02-10T13:18:44.324Z,4.40
2019-02-10T13:21:11.837Z,3.33
2019-02-10T13:23:39.347Z,5.27
2019-02-10T13:26:08.893Z,4.20
2019-02-10T13:28:36.485Z,3.97
2019-02-10T13:31:04.054Z,4.07
2019-02-10T13:33:31.542Z,6.97
2019-02-10T13:35:59.348Z,3.87
2019-02-10T13:38:28.841Z,3.53
2019-02-10T13:40:56.359Z,3.63
2019-02-10T13:43:23.902Z,4.13
2019-02-10T13:45:51.466Z,4.93
2019-02-10T13:48:19.032Z,5.50
2019-02-10T13:50:48.668Z,3.43
2019-02-10T13:53:16.992Z,3.73
2019-02-10T13:55:44.518Z,3.40
2019-02-10T13:58:12.028Z,4.60
2019-02-10T14:00:41.890Z,3.07
2019-02-10T14:03:12.152Z,3.40
2019-02-10T14:05:42.840Z,2.87
2019-02-10T14:08:10.388Z,7.63
2019-02-10T14:10:57.411Z,14.00
2019-02-10T14:13:27.856Z,3.70
2019-02-10T14:16:00.676Z,2.87
2019-02-10T14:18:28.207Z,4.17
2019-02-10T14:20:58.055Z,5.90
2019-02-10T14:23:25.720Z,5.30
2019-02-10T14:25:53.200Z,4.60
2019-02-10T14:31:12.321Z,4.40
2019-02-10T14:33:59.499Z,4.43
2019-02-10T14:36:27.001Z,4.87
2019-02-10T14:39:01.528Z,6.77
2019-02-10T14:41:32.454Z,7.40
2019-02-10T14:44:04.533Z,4.63
2019-02-10T14:46:32.387Z,4.33
2019-02-10T14:49:03.441Z,6.50
2019-02-10T14:51:33.080Z,5.43
2019-02-10T14:54:01.249Z,5.80
2019-02-10T14:56:28.783Z,4.93
2019-02-10T14:58:56.292Z,6.57
2019-02-10T15:01:23.835Z,5.87
2019-02-10T15:03:51.413Z,5.20
2019-02-10T15:06:22.381Z,5.03
2019-02-10T15:09:18.127Z,10.53
2019-02-10T15:11:48.414Z,7.47
2019-02-10T15:14:18.502Z,7.33
2019-02-10T15:16:45.965Z,6.63
2019-02-10T15:19:14.092Z,8.27
2019-02-10T15:21:42.474Z,6.77
2019-02-10T15:24:10.030Z,8.37
2019-02-10T15:26:40.766Z,6.97
2019-02-10T15:29:27.838Z,7.63
2019-02-10T15:31:55.471Z,11.87
2019-02-10T15:34:23.418Z,9.67
2019-02-10T15:36:50.929Z,8.47
2019-02-10T15:39:18.414Z,7.53
2019-02-10T15:41:45.973Z,6.83
2019-02-10T15:44:13.505Z,8.57
2019-02-10T15:46:41.038Z,10.87
2019-02-10T15:49:08.945Z,7.80
2019-02-10T15:51:37.338Z,7.43
2019-02-10T15:54:04.922Z,10.33
2019-02-10T15:56:32.487Z,9.83
2019-02-10T15:59:00.044Z,12.63
2019-02-10T16:01:27.599Z,10.40
2019-02-10T16:03:55.093Z,9.10
2019-02-10T16:06:22.595Z,17.17
2019-02-10T16:08:50.145Z,9.23
2019-02-10T16:11:17.841Z,6.40
2019-02-10T16:13:45.619Z,6.53
2019-02-10T16:16:13.111Z,5.67
2019-02-10T16:18:40.625Z,9.03
2019-02-10T16:21:08.137Z,8.43
2019-02-10T16:23:35.624Z,4.07
2019-02-10T16:26:03.091Z,4.00
2019-02-10T16:28:30.723Z,3.90
2019-02-10T16:30:58.273Z,4.80
2019-02-10T16:33:25.783Z,8.37
2019-02-10T16:35:53.358Z,6.13
2019-02-10T16:38:20.863Z,8.27
2019-02-10T16:40:48.411Z,8.57
2019-02-10T16:43:15.910Z,9.27
2019-02-10T16:45:45.707Z,12.37
2019-02-10T16:48:13.234Z,10.20
2019-02-10T16:50:40.765Z,9.77
2019-02-10T16:53:08.251Z,10.87
2019-02-10T16:55:35.767Z,16.07
2019-02-10T16:58:03.261Z,13.43
2019-02-10T17:00:30.738Z,13.77
2019-02-10T17:02:58.207Z,12.13
2019-02-10T17:05:25.759Z,25.30
2019-02-10T17:07:53.265Z,9.93
2019-02-10T17:10:20.776Z,13.27
2019-02-10T17:12:48.330Z,11.07
2019-02-10T17:15:15.827Z,11.27
2019-02-10T17:17:43.323Z,12.10
2019-02-10T17:20:10.964Z,7.73
2019-02-10T17:22:38.481Z,12.37
2019-02-10T17:25:07.690Z,11.17
2019-02-10T17:27:35.189Z,12.30
2019-02-10T17:30:02.915Z,13.83
2019-02-10T17:32:31.508Z,16.20
2019-02-10T17:34:58.997Z,16.20
2019-02-10T17:37:26.515Z,14.40
2019-02-10T17:39:54.003Z,15.87
2019-02-10T17:42:21.514Z,14.83
2019-02-10T17:44:49.013Z,13.80
2019-02-10T17:47:16.551Z,15.17
2019-02-10T17:49:44.045Z,12.27
2019-02-10T17:52:11.517Z,8.77
2019-02-10T17:54:39.042Z,8.90
2019-02-10T17:57:06.512Z,5.73
2019-02-10T17:59:34.041Z,3.83
2019-02-10T18:02:01.679Z,3.80
2019-02-10T18:04:37.232Z,4.00
2019-02-10T18:06:58.498Z,2.03
2019-02-10T18:09:25.973Z,1.93
2019-02-10T18:11:53.497Z,1.30
2019-02-10T18:14:50.956Z,1.10
2019-02-10T18:17:50.308Z,2.20
2019-02-10T18:20:40.731Z,0.60
2019-02-10T18:23:37.062Z,1.50
2019-02-10T18:26:26.908Z,0.73
2019-02-10T18:29:26.078Z,1.00
2019-02-10T18:32:12.673Z,0.80
2019-02-10T18:35:08.781Z,1.33
2019-02-10T18:37:42.913Z,1.30
2019-02-10T18:40:35.928Z,0.70
2019-02-10T18:43:32.031Z,1.63
2019-02-10T18:46:21.814Z,1.07
2019-02-10T18:49:17.834Z,0.60
2019-02-10T18:51:51.464Z,0.60
2019-02-10T18:54:25.621Z,1.17
2019-02-10T18:57:21.641Z,2.03
2019-02-10T19:00:06.193Z,0.60
2019-02-10T19:02:55.984Z,0.50
2019-02-10T19:05:48.764Z,0.60
2019-02-10T19:08:28.479Z,1.90
2019-02-10T19:11:07.191Z,2.03
2019-02-10T19:14:03.578Z,0.60
2019-02-10T19:16:43.371Z,1.07
2019-02-10T19:19:31.255Z,0.80
2019-02-10T19:22:17.339Z,0.70
2019-02-10T19:24:51.676Z,0.77
2019-02-10T19:27:30.545Z,0.60
2019-02-10T19:30:06.025Z,0.20
2019-02-10T19:32:47.483Z,0.17
2019-02-10T19:35:34.493Z,0.30
2019-02-10T19:38:24.521Z,0.30
2019-02-10T19:41:10.271Z,0.13
2019-02-10T19:44:00.341Z,0.10
2019-02-10T19:46:46.168Z,0.20
2019-02-10T19:49:33.161Z,0.13
2019-02-10T19:52:14.319Z,0.20
2019-02-10T19:54:47.465Z,0.20
2019-02-10T19:57:28.601Z,0.10
2019-02-10T20:00:30.729Z,0.10
2019-02-10T20:03:17.719Z,0.67
2019-02-10T20:06:10.782Z,0.10
2019-02-10T20:08:45.779Z,0.10
2019-02-10T20:11:32.007Z,0.30
2019-02-10T20:14:05.776Z,0.10
2019-02-10T20:16:40.633Z,0.20
2019-02-10T20:19:30.417Z,0.10
2019-02-10T20:22:26.569Z,0.50
2019-02-10T20:25:29.222Z,0.50
2019-02-10T20:28:19.140Z,0.23
2019-02-10T20:31:06.639Z,2.10
2019-02-10T20:33:59.881Z,0.40
2019-02-10T20:36:33.004Z,0.43
2019-02-10T20:39:13.003Z,0.20
2019-02-10T20:41:47.979Z,0.20
2019-02-10T20:44:27.998Z,0.30
2019-02-10T20:47:18.014Z,0.50
2019-02-10T20:49:53.276Z,0.87
2019-02-10T20:52:46.412Z,1.00
2019-02-10T20:55:26.529Z,0.53
2019-02-10T20:58:05.581Z,0.43
2019-02-10T21:00:52.613Z,0.40
2019-02-10T21:03:49.123Z,0.57
2019-02-10T21:06:28.379Z,0.33
2019-02-10T21:09:14.201Z,1.70
2019-02-10T21:12:00.552Z,0.40
2019-02-10T21:14:46.284Z,0.30
2019-02-10T21:17:36.285Z,0.87
2019-02-10T21:20:26.295Z,0.87
2019-02-10T21:23:15.334Z,0.40
2019-02-10T21:25:53.220Z,0.30
2019-02-10T21:28:26.454Z,0.43
2019-02-10T21:31:12.175Z,2.37
2019-02-10T21:33:52.378Z,0.30
2019-02-10T21:36:39.602Z,1.40
2019-02-10T21:39:26.605Z,0.63
2019-02-10T21:42:16.666Z,0.77
2019-02-10T21:45:02.302Z,0.43
2019-02-10T21:47:49.318Z,0.40
2019-02-10T21:50:16.810Z,0.87
2019-02-10T21:52:44.340Z,0.43
2019-02-10T21:55:11.829Z,0.47
2019-02-10T21:57:39.320Z,1.90
2019-02-10T22:00:10.425Z,0.20
2019-02-10T22:02:38.000Z,0.30
2019-02-10T22:05:05.565Z,0.53
2019-02-10T22:07:33.098Z,0.30
2019-02-10T22:10:00.582Z,0.80
2019-02-10T22:12:28.051Z,0.20
2019-02-10T22:14:55.597Z,0.50
2019-02-10T22:17:23.300Z,1.07
2019-02-10T22:19:50.765Z,0.83
2019-02-10T22:22:18.230Z,1.23
2019-02-10T22:24:45.729Z,0.30
2019-02-10T22:27:13.224Z,1.73
2019-02-10T22:29:40.689Z,0.10
2019-02-10T22:32:08.206Z,0.23
2019-02-10T22:34:35.663Z,0.20
2019-02-10T22:37:03.169Z,0.20
2019-02-10T22:39:30.653Z,0.40
2019-02-10T22:41:58.163Z,0.30
2019-02-10T22:44:25.685Z,0.37
2019-02-10T22:46:53.136Z,0.20
2019-02-10T22:49:20.736Z,0.20
2019-02-10T22:51:48.220Z,0.00
2019-02-10T22:54:15.729Z,0.27
2019-02-10T22:56:43.192Z,0.10
2019-02-10T22:59:10.690Z,0.20
2019-02-10T23:01:38.208Z,1.67
2019-02-10T23:04:05.723Z,0.50
2019-02-10T23:06:33.221Z,0.20
2019-02-10T23:09:00.752Z,1.20
2019-02-10T23:11:28.198Z,1.03
2019-02-10T23:13:55.704Z,0.10
2019-02-10T23:16:23.224Z,0.20
2019-02-10T23:18:50.720Z,0.20
2019-02-10T23:21:18.210Z,0.20
2019-02-10T23:23:45.701Z,0.20
2019-02-10T23:26:13.177Z,0.10
2019-02-10T23:28:40.716Z,0.20
2019-02-10T23:31:08.583Z,0.20
2019-02-10T23:33:36.074Z,0.30
2019-02-10T23:36:03.513Z,0.23
2019-02-10T23:38:31.044Z,0.40
2019-02-10T23:40:58.581Z,0.50
2019-02-10T23:43:26.047Z,0.83
2019-02-10T23:45:53.550Z,0.20
2019-02-10T23:48:21.003Z,0.30
2019-02-10T23:50:48.509Z,0.20
2019-02-10T23:53:15.971Z,0.50
2019-02-10T23:55:43.528Z,0.27
2019-02-10T23:58:11.013Z,0.40
